Time;durP1;ratioP1;P1;durP2;ratioP2;P2;SDS_P1;SDS_P2;PMS_P1;PMS_P2;Temp;Humidity;BMP_temperature;BMP_pressure;BME280_temperature;BME280_humidity;BME280_pressure;Samples;Min_cycle;Max_cycle;Signal;HPM_P1;HPM_P2
2022/04/09 00:00:42;;;;;;;3.83;1.20;;;4.70;99.90;;;;;;5029624;28;20493;-74
2022/04/09 00:03:11;;;;;;;0.98;0.90;;;4.70;99.90;;;;;;5010237;28;20046;-75
2022/04/09 00:05:43;;;;;;;4.18;0.90;;;4.70;99.90;;;;;;5010486;28;20069;-74
2022/04/09 00:08:11;;;;;;;2.40;0.90;;;4.70;99.90;;;;;;5043787;28;20052;-75
2022/04/09 00:10:39;;;;;;;1.48;0.85;;;4.70;99.90;;;;;;5012547;28;20391;-75
2022/04/09 00:13:08;;;;;;;2.78;1.42;;;4.60;99.90;;;;;;5046594;28;20055;-75
2022/04/09 00:15:36;;;;;;;2.47;1.15;;;4.60;99.90;;;;;;5031582;28;20045;-75
2022/04/09 00:18:04;;;;;;;4.47;2.25;;;4.60;99.90;;;;;;5012544;28;20107;-74
2022/04/09 00:20:32;;;;;;;2.92;1.58;;;4.60;99.90;;;;;;5028948;28;20175;-75
2022/04/09 00:22:59;;;;;;;2.35;1.02;;;4.50;99.90;;;;;;5028469;28;20060;-74
2022/04/09 00:25:30;;;;;;;0.90;0.90;;;4.60;99.90;;;;;;5013312;28;20041;-74
2022/04/09 00:27:58;;;;;;;1.15;0.80;;;4.50;99.90;;;;;;5028069;28;20159;-74
2022/04/09 00:30:27;;;;;;;1.63;0.80;;;4.50;99.90;;;;;;5031202;28;20501;-71
2022/04/09 00:32:56;;;;;;;1.95;0.90;;;4.50;99.90;;;;;;5029490;28;20053;-71
2022/04/09 00:35:31;;;;;;;4.75;0.73;;;4.50;99.90;;;;;;5013227;28;20417;-72
2022/04/09 00:38:00;;;;;;;2.30;1.15;;;4.50;99.90;;;;;;5027932;28;20041;-72
2022/04/09 00:41:24;;;;;;;;;;;;;;;;;;;;;
2022/04/09 01:33:20;;;;;;;1.45;1.13;;;4.10;99.90;;;;;;4852493;29;20147;-74
2022/04/09 01:35:49;;;;;;;3.30;0.93;;;4.00;99.90;;;;;;4903898;29;20055;-74
2022/04/09 01:38:18;;;;;;;1.30;1.02;;;3.90;99.90;;;;;;5003958;28;20524;-74
2022/04/09 01:40:47;;;;;;;4.57;1.00;;;4.00;99.90;;;;;;4996637;28;20053;-74
2022/04/09 01:43:15;;;;;;;1.70;1.15;;;3.90;99.90;;;;;;4979215;28;20657;-74
2022/04/09 01:45:43;;;;;;;3.22;0.77;;;3.90;99.90;;;;;;4996655;28;20073;-75
2022/04/09 01:48:23;;;;;;;1.70;0.82;;;3.90;99.90;;;;;;4996873;28;20057;-74
2022/04/09 01:50:55;;;;;;;2.42;1.10;;;3.90;99.90;;;;;;5011767;28;20053;-75
2022/04/09 01:53:23;;;;;;;1.65;1.05;;;3.90;99.90;;;;;;4980637;28;20145;-74
2022/04/09 01:55:51;;;;;;;5.00;1.10;;;3.90;99.90;;;;;;4996747;28;20053;-75
2022/04/09 01:58:19;;;;;;;3.05;1.00;;;3.80;99.90;;;;;;4996301;28;20045;-75
2022/04/09 02:00:49;;;;;;;3.72;1.20;;;3.80;99.90;;;;;;4992964;28;20050;-74
2022/04/09 02:03:17;;;;;;;2.85;1.23;;;3.80;99.90;;;;;;4996116;28;20100;-74
2022/04/09 02:05:45;;;;;;;10.30;1.23;;;3.70;99.90;;;;;;5013837;28;20081;-74
2022/04/09 02:08:13;;;;;;;5.63;1.92;;;3.70;99.90;;;;;;5013536;28;20050;-74
2022/04/09 02:10:40;;;;;;;1.52;1.25;;;3.70;99.90;;;;;;4975900;28;20747;-73
2022/04/09 02:13:12;;;;;;;3.45;1.25;;;3.70;99.90;;;;;;4997858;28;20084;-73
2022/04/09 02:15:40;;;;;;;5.95;2.35;;;3.70;99.90;;;;;;5013627;28;20045;-74
2022/04/09 02:18:08;;;;;;;3.00;1.35;;;3.60;99.90;;;;;;4978498;28;20078;-74
2022/04/09 02:20:35;;;;;;;3.65;1.30;;;3.60;99.90;;;;;;5013216;28;20107;-74
2022/04/09 02:23:04;;;;;;;2.47;1.20;;;3.60;99.90;;;;;;4995510;28;20147;-74
2022/04/09 02:25:33;;;;;;;5.07;1.38;;;3.60;99.90;;;;;;4995891;28;20418;-74
2022/04/09 02:28:00;;;;;;;3.35;1.38;;;3.60;99.90;;;;;;5012125;28;20100;-74
2022/04/09 02:30:27;;;;;;;2.10;1.20;;;3.50;99.90;;;;;;4995746;28;20041;-73
2022/04/09 02:33:00;;;;;;;3.78;1.35;;;3.60;99.90;;;;;;5011301;28;20053;-74
2022/04/09 02:35:32;;;;;;;5.15;1.67;;;3.50;99.90;;;;;;4994117;28;20050;-73
2022/04/09 02:38:02;;;;;;;2.42;1.20;;;3.50;99.90;;;;;;4993778;28;20053;-73
2022/04/09 02:40:33;;;;;;;4.38;1.38;;;3.50;99.90;;;;;;4994047;28;20050;-73
2022/04/09 02:43:00;;;;;;;4.07;1.23;;;3.50;99.90;;;;;;4992512;28;20045;-74
2022/04/09 02:45:28;;;;;;;3.72;1.58;;;3.40;99.90;;;;;;4994617;28;20574;-74
2022/04/09 02:47:56;;;;;;;6.22;1.27;;;3.40;99.90;;;;;;5011555;28;20073;-74
2022/04/09 02:50:27;;;;;;;2.38;1.20;;;3.40;99.90;;;;;;4994723;28;20053;-74
2022/04/09 02:52:55;;;;;;;1.95;0.80;;;3.40;99.90;;;;;;5011485;28;20054;-74
2022/04/09 02:55:25;;;;;;;4.13;1.15;;;3.40;99.90;;;;;;4993296;28;20058;-74
2022/04/09 02:57:54;;;;;;;5.90;1.17;;;3.40;99.90;;;;;;4999999;28;20053;-74
2022/04/09 03:00:25;;;;;;;2.70;1.00;;;3.40;99.90;;;;;;5010808;28;20089;-73
2022/04/09 03:02:53;;;;;;;2.95;1.17;;;3.40;99.90;;;;;;5010083;28;20042;-74
2022/04/09 03:05:30;;;;;;;5.82;1.02;;;3.30;99.90;;;;;;5010547;28;20054;-74
2022/04/09 03:07:58;;;;;;;4.38;1.00;;;3.30;99.90;;;;;;5012028;28;20111;-74
2022/04/09 03:10:25;;;;;;;2.50;0.63;;;3.30;99.90;;;;;;5012457;28;20041;-74
2022/04/09 03:12:55;;;;;;;2.83;0.90;;;3.20;99.90;;;;;;5011227;28;20100;-74
2022/04/09 03:15:23;;;;;;;1.98;1.00;;;3.20;99.90;;;;;;4994815;28;20462;-74
2022/04/09 03:17:50;;;;;;;1.80;0.85;;;3.20;99.90;;;;;;4994544;28;20061;-74
2022/04/09 03:20:21;;;;;;;8.98;1.42;;;3.20;99.90;;;;;;4978376;28;20108;-74
2022/04/09 03:22:50;;;;;;;3.88;1.15;;;3.10;99.90;;;;;;4993921;28;20052;-75
2022/04/09 03:25:38;;;;;;;3.88;1.13;;;3.20;99.90;;;;;;5004789;28;20064;-74
2022/04/09 03:28:07;;;;;;;3.65;0.90;;;3.10;99.90;;;;;;5012085;28;20429;-74
2022/04/09 03:30:37;;;;;;;3.08;1.83;;;3.10;99.90;;;;;;5010342;28;20156;-74
2022/04/09 03:33:07;;;;;;;4.90;1.10;;;3.10;99.90;;;;;;4994362;28;20072;-74
2022/04/09 03:35:37;;;;;;;4.32;1.20;;;3.10;99.90;;;;;;4994923;28;20049;-74
2022/04/09 03:38:06;;;;;;;3.90;1.08;;;3.10;99.90;;;;;;4978354;28;20108;-74
2022/04/09 03:40:46;;;;;;;8.43;1.20;;;3.00;99.90;;;;;;4991424;28;20239;-73
2022/04/09 03:43:16;;;;;;;6.97;1.08;;;3.00;99.90;;;;;;4977514;28;20093;-74
2022/04/09 03:45:44;;;;;;;8.48;1.10;;;3.00;99.90;;;;;;4978086;28;20053;-73
2022/04/09 03:48:11;;;;;;;4.40;1.05;;;3.00;99.90;;;;;;4993503;28;20576;-73
2022/04/09 03:50:45;;;;;;;7.68;1.25;;;3.00;99.90;;;;;;5010083;28;20154;-74
2022/04/09 03:53:19;;;;;;;5.40;1.40;;;3.00;99.90;;;;;;4990645;28;20149;-74
2022/04/09 03:55:49;;;;;;;3.70;1.17;;;3.00;99.90;;;;;;4993537;28;20065;-74
2022/04/09 03:58:19;;;;;;;5.40;1.10;;;3.00;99.90;;;;;;4992953;28;20042;-75
2022/04/09 04:00:49;;;;;;;4.13;1.48;;;3.00;99.90;;;;;;4992948;28;20056;-74
2022/04/09 04:03:19;;;;;;;6.00;1.60;;;2.90;99.90;;;;;;4993966;28;20086;-75
2022/04/09 04:05:48;;;;;;;3.83;1.33;;;3.00;99.90;;;;;;4993825;28;20399;-74
2022/04/09 04:08:17;;;;;;;5.15;1.58;;;3.00;99.90;;;;;;4993018;28;20046;-74
2022/04/09 04:10:44;;;;;;;4.18;1.35;;;3.10;99.90;;;;;;4993676;28;20046;-74
2022/04/09 04:13:26;;;;;;;4.97;1.50;;;3.00;99.90;;;;;;4993870;28;20140;-74
2022/04/09 04:15:56;;;;;;;5.65;1.75;;;3.10;99.90;;;;;;5009401;28;20053;-75
2022/04/09 04:18:24;;;;;;;10.02;2.40;;;3.10;99.90;;;;;;4993174;28;20050;-74
2022/04/09 04:20:55;;;;;;;6.68;1.65;;;3.10;99.90;;;;;;5011762;28;20514;-74
2022/04/09 04:23:24;;;;;;;6.97;1.63;;;3.20;99.90;;;;;;4993681;28;20060;-74
2022/04/09 04:25:53;;;;;;;4.13;1.25;;;3.40;99.90;;;;;;5007183;28;20123;-74
2022/04/09 04:28:21;;;;;;;3.28;1.42;;;3.50;99.90;;;;;;4992564;28;20052;-75
2022/04/09 04:30:50;;;;;;;7.60;2.10;;;3.60;99.90;;;;;;4969167;28;20459;-76
2022/04/09 04:33:19;;;;;;;8.63;1.58;;;3.60;99.90;;;;;;4993279;28;20038;-75
2022/04/09 04:35:57;;;;;;;6.32;1.70;;;3.60;99.90;;;;;;5009924;28;20076;-73
2022/04/09 04:38:28;;;;;;;6.20;1.63;;;3.50;99.90;;;;;;4996595;28;20395;-72
2022/04/09 04:40:57;;;;;;;7.43;1.92;;;3.50;99.90;;;;;;4994005;28;20042;-73
2022/04/09 04:43:27;;;;;;;7.47;1.98;;;3.50;99.90;;;;;;4976193;28;20042;-71
2022/04/09 04:45:57;;;;;;;5.45;1.65;;;3.50;99.90;;;;;;4994298;28;20426;-75
2022/04/09 04:48:28;;;;;;;6.25;1.40;;;3.60;99.90;;;;;;4992875;28;20054;-77
2022/04/09 04:50:57;;;;;;;6.00;1.47;;;3.60;99.90;;;;;;4991321;28;20041;-71
2022/04/09 04:53:29;;;;;;;8.07;1.80;;;3.60;99.90;;;;;;4992714;28;20061;-75
2022/04/09 04:55:59;;;;;;;8.45;1.58;;;3.60;99.90;;;;;;5011323;28;20052;-74
2022/04/09 04:58:36;;;;;;;5.65;1.65;;;3.70;99.90;;;;;;5009650;28;20100;-74
2022/04/09 05:01:08;;;;;;;5.25;1.60;;;3.70;99.90;;;;;;4991918;28;20076;-75
2022/04/09 05:03:39;;;;;;;6.40;1.65;;;3.80;99.90;;;;;;4991217;28;20077;-74
2022/04/09 05:06:37;;;;;;;7.05;1.98;;;3.90;99.90;;;;;;5003197;28;20050;-75
2022/04/09 05:09:06;;;;;;;3.97;1.30;;;3.80;99.90;;;;;;4997333;28;20080;-78
2022/04/09 05:11:43;;;;;;;4.55;1.88;;;3.80;99.90;;;;;;4978506;28;20056;-75
2022/04/09 05:14:16;;;;;;;7.18;2.10;;;3.80;99.90;;;;;;4995540;28;20042;-76
2022/04/09 05:16:51;;;;;;;6.20;1.17;;;3.80;99.90;;;;;;4997606;28;20554;-76
2022/04/09 05:19:22;;;;;;;3.92;1.38;;;3.80;99.90;;;;;;5011965;28;20053;-75
2022/04/09 05:21:55;;;;;;;8.57;1.80;;;3.80;99.90;;;;;;4980682;28;20053;-71
2022/04/09 05:24:25;;;;;;;6.13;1.83;;;3.80;99.90;;;;;;4993882;28;20057;-71
2022/04/09 05:26:52;;;;;;;5.47;2.92;;;3.90;99.90;;;;;;5011835;28;20058;-71
2022/04/09 05:29:23;;;;;;;7.82;2.22;;;4.00;99.90;;;;;;4992987;28;20057;-71
2022/04/09 05:31:52;;;;;;;7.35;2.40;;;4.00;99.90;;;;;;4993713;28;20054;-74
2022/04/09 05:34:20;;;;;;;6.85;1.55;;;4.00;99.90;;;;;;4991657;28;20343;-71
2022/04/09 05:36:48;;;;;;;4.40;1.40;;;4.10;99.90;;;;;;4992172;28;20041;-70
2022/04/09 05:39:17;;;;;;;6.07;1.40;;;4.20;99.90;;;;;;4992085;28;20108;-71
2022/04/09 05:41:45;;;;;;;6.05;1.70;;;4.30;99.90;;;;;;5010170;28;20420;-71
2022/04/09 05:44:13;;;;;;;6.60;1.85;;;4.30;99.90;;;;;;5010222;28;20080;-71
2022/04/09 05:46:40;;;;;;;12.05;2.60;;;4.40;99.90;;;;;;5010082;28;20137;-70
2022/04/09 05:49:11;;;;;;;8.32;2.03;;;4.70;99.90;;;;;;4995312;28;20164;-72
2022/04/09 05:54:44;;;;;;;3.85;1.60;;;5.70;99.90;;;;;;4972232;28;20120;-72
2022/04/09 05:57:16;;;;;;;4.50;1.58;;;6.30;99.90;;;;;;4988191;28;20050;-72
2022/04/09 05:59:44;;;;;;;4.80;1.35;;;6.90;99.90;;;;;;5009650;28;20128;-74
2022/04/09 06:02:13;;;;;;;7.65;2.08;;;7.40;99.90;;;;;;5009521;28;20129;-76
2022/04/09 06:04:42;;;;;;;13.30;1.73;;;7.70;99.90;;;;;;5009767;28;20057;-74
2022/04/09 06:07:13;;;;;;;8.00;1.65;;;7.90;99.90;;;;;;4996477;28;20050;-74
2022/04/09 06:09:47;;;;;;;6.30;1.50;;;8.30;99.90;;;;;;4996642;28;20509;-75
2022/04/09 06:12:18;;;;;;;4.87;1.47;;;8.60;99.90;;;;;;4996784;28;20053;-74
2022/04/09 06:14:58;;;;;;;8.60;1.40;;;9.20;99.90;;;;;;4981057;28;20100;-74
2022/04/09 06:17:33;;;;;;;5.40;1.98;;;9.40;99.90;;;;;;4995656;28;20056;-75
2022/04/09 06:20:02;;;;;;;13.88;1.77;;;9.10;99.90;;;;;;4998021;28;20466;-74
2022/04/09 06:22:30;;;;;;;7.05;1.75;;;9.10;99.90;;;;;;4994974;28;20053;-76
2022/04/09 06:24:58;;;;;;;6.25;1.83;;;9.20;99.90;;;;;;5012045;28;20442;-74
2022/04/09 06:28:08;;;;;;;5.75;1.73;;;9.50;99.90;;;;;;4979922;28;20092;-74
2022/04/09 06:30:54;;;;;;;3.95;1.45;;;9.00;99.90;;;;;;4976720;28;20058;-70
2022/04/09 06:33:50;;;;;;;6.88;1.48;;;9.10;99.90;;;;;;5008660;28;20050;-70
2022/04/09 06:36:24;;;;;;;9.35;2.15;;;8.60;99.90;;;;;;5003413;28;20108;-76
2022/04/09 06:38:53;;;;;;;5.43;1.50;;;8.30;99.90;;;;;;4996359;28;20092;-76
2022/04/09 06:41:35;;;;;;;4.63;2.20;;;8.60;99.90;;;;;;4995253;28;20536;-75
2022/04/09 06:44:08;;;;;;;8.70;1.50;;;9.30;99.90;;;;;;4995173;28;20128;-75
2022/04/09 06:46:59;;;;;;;8.27;1.90;;;10.10;99.90;;;;;;5012067;28;20517;-76
2022/04/09 06:49:39;;;;;;;8.77;1.73;;;10.60;95.80;;;;;;4994368;28;20611;-70
2022/04/09 06:52:18;;;;;;;9.20;2.63;;;10.60;94.50;;;;;;4993559;28;20073;-70
2022/04/09 06:55:01;;;;;;;8.63;2.10;;;10.40;96.60;;;;;;5009346;28;20044;-71
2022/04/09 06:57:32;;;;;;;7.72;1.65;;;10.60;94.50;;;;;;4995059;28;20526;-69
2022/04/09 07:00:01;;;;;;;10.70;2.15;;;10.40;94.30;;;;;;4992664;28;20499;-70
2022/04/09 07:02:34;;;;;;;5.18;1.50;;;10.20;95.00;;;;;;5015421;28;20052;-69
2022/04/09 07:05:01;;;;;;;7.85;1.77;;;9.80;94.40;;;;;;5014263;28;20061;-71
2022/04/09 07:07:31;;;;;;;9.50;1.60;;;9.00;99.20;;;;;;4996241;28;20100;-71
2022/04/09 07:10:30;;;;;;;8.80;1.80;;;8.80;99.90;;;;;;4996671;28;20042;-74
2022/04/09 07:13:04;;;;;;;7.18;1.70;;;8.50;99.90;;;;;;4994731;28;20045;-75
2022/04/09 07:16:07;;;;;;;7.15;1.50;;;8.10;99.90;;;;;;4995778;28;20145;-70
2022/04/09 07:19:14;;;;;;;6.15;1.67;;;8.10;99.90;;;;;;4992432;28;20069;-75
2022/04/09 07:22:24;;;;;;;10.75;2.78;;;8.00;99.90;;;;;;5008195;28;20068;-70
2022/04/09 07:25:08;;;;;;;3.55;1.25;;;8.10;99.90;;;;;;5009753;28;20084;-70
2022/04/09 07:27:37;;;;;;;4.05;1.70;;;8.00;99.90;;;;;;4992133;28;20731;-70
2022/04/09 07:30:07;;;;;;;7.63;1.70;;;7.60;99.90;;;;;;4992394;28;20093;-71
2022/04/09 07:33:10;;;;;;;10.40;2.10;;;7.30;99.90;;;;;;5017366;28;20046;-75
2022/04/09 07:36:23;;;;;;;7.53;1.40;;;7.50;99.90;;;;;;5011973;28;20050;-75
2022/04/09 07:39:25;;;;;;;6.70;1.10;;;7.80;99.90;;;;;;5011776;28;20042;-70
2022/04/09 07:47:09;;;;;;;6.93;1.42;;;7.70;99.90;;;;;;5000044;28;20073;-81
2022/04/09 07:49:37;;;;;;;5.45;1.10;;;8.70;97.10;;;;;;4997938;28;20540;-78
2022/04/09 07:52:05;;;;;;;5.00;1.77;;;9.30;90.70;;;;;;4984847;28;20060;-77
2022/04/09 07:54:34;;;;;;;6.60;1.30;;;9.10;89.70;;;;;;4983105;28;20054;-78
2022/04/09 07:57:01;;;;;;;1.67;1.27;;;9.50;90.60;;;;;;4982017;28;20046;-76
2022/04/09 07:59:29;;;;;;;4.28;2.00;;;10.30;81.30;;;;;;4986046;28;20051;-82
2022/04/09 08:01:56;;;;;;;6.22;2.05;;;11.30;76.80;;;;;;4970878;28;20042;-81
2022/04/09 08:04:25;;;;;;;11.18;1.65;;;12.60;72.10;;;;;;4962450;28;20129;-82
2022/04/09 08:06:53;;;;;;;3.28;1.27;;;13.70;69.60;;;;;;4986390;28;20072;-79
2022/04/09 08:09:20;;;;;;;2.00;1.27;;;15.30;60.40;;;;;;4981774;28;20082;-80
2022/04/09 08:11:47;;;;;;;10.38;1.55;;;15.80;57.20;;;;;;4981919;28;20046;-78
2022/04/09 08:14:15;;;;;;;5.35;1.15;;;16.00;55.90;;;;;;4982490;28;20085;-79
2022/04/09 08:16:42;;;;;;;2.17;0.85;;;16.70;54.80;;;;;;4975636;28;20122;-80
2022/04/09 08:19:10;;;;;;;6.93;1.52;;;16.70;54.10;;;;;;4956664;28;20466;-84
2022/04/09 08:21:39;;;;;;;4.32;0.90;;;16.50;54.20;;;;;;4992575;28;20050;-83
2022/04/09 08:24:07;;;;;;;6.07;1.80;;;16.50;52.70;;;;;;4988788;28;20050;-83
2022/04/09 08:26:34;;;;;;;7.72;1.63;;;15.30;53.70;;;;;;4992049;28;20054;-85
2022/04/09 08:29:03;;;;;;;5.70;1.20;;;15.00;55.80;;;;;;4992020;28;20058;-82
2022/04/09 08:31:30;;;;;;;9.00;1.20;;;14.60;56.40;;;;;;4987350;28;20506;-86
2022/04/09 08:33:58;;;;;;;3.00;1.00;;;14.70;56.40;;;;;;4988967;28;20039;-82
2022/04/09 08:36:26;;;;;;;7.65;2.08;;;15.50;55.70;;;;;;4961468;28;20505;-83
2022/04/09 08:38:56;;;;;;;6.88;1.35;;;16.40;54.30;;;;;;4999752;28;20132;-85
2022/04/09 08:41:24;;;;;;;4.65;1.45;;;16.90;52.50;;;;;;4993464;28;20145;-83
2022/04/09 08:43:51;;;;;;;4.13;1.30;;;16.30;51.80;;;;;;5011933;28;20524;-84
2022/04/09 08:46:18;;;;;;;7.10;1.40;;;14.80;53.70;;;;;;4989836;28;20522;-84
2022/04/09 08:48:49;;;;;;;4.20;1.40;;;14.60;55.70;;;;;;4970721;28;20054;-84
2022/04/09 08:51:17;;;;;;;10.48;1.85;;;14.80;55.10;;;;;;4994080;28;20057;-85
2022/04/09 08:53:46;;;;;;;9.48;1.48;;;15.80;55.30;;;;;;4990232;28;20057;-84
2022/04/09 08:56:17;;;;;;;7.55;1.23;;;17.20;51.90;;;;;;4982994;28;20481;-86
2022/04/09 08:58:45;;;;;;;3.70;1.08;;;18.10;49.80;;;;;;4988126;28;20137;-84
2022/04/09 09:01:12;;;;;;;2.90;1.30;;;18.70;48.50;;;;;;4988935;28;20052;-86
2022/04/09 09:03:39;;;;;;;7.30;0.90;;;19.20;46.90;;;;;;4983165;28;20049;-87
2022/04/09 09:06:28;;;;;;;3.17;0.95;;;18.60;46.10;;;;;;4986093;28;20050;-84
2022/04/09 09:08:56;;;;;;;7.70;1.25;;;16.70;48.30;;;;;;4988416;28;20054;-85
2022/04/09 09:11:27;;;;;;;3.55;1.00;;;15.60;50.80;;;;;;4987350;28;20526;-87
2022/04/09 09:13:56;;;;;;;2.90;1.33;;;15.00;51.90;;;;;;4972137;28;20074;-85
2022/04/09 09:16:27;;;;;;;3.70;1.33;;;14.10;53.50;;;;;;4990241;28;20375;-83
2022/04/09 09:18:56;;;;;;;8.93;1.33;;;14.60;55.30;;;;;;4972155;28;20446;-80
2022/04/09 09:21:27;;;;;;;7.57;1.30;;;14.70;52.50;;;;;;4985905;28;20065;-81
2022/04/09 09:24:14;;;;;;;5.07;1.05;;;14.40;53.60;;;;;;4980945;28;20100;-81
2022/04/09 09:26:44;;;;;;;5.72;1.17;;;15.70;52.20;;;;;;4978423;28;20502;-82
2022/04/09 09:29:26;;;;;;;8.00;1.15;;;16.60;50.50;;;;;;4960501;28;20141;-82
2022/04/09 09:31:55;;;;;;;8.35;1.48;;;17.40;48.70;;;;;;4964122;28;20042;-82
2022/04/09 09:34:23;;;;;;;2.35;1.10;;;17.40;48.60;;;;;;4988705;28;20061;-83
2022/04/09 09:36:50;;;;;;;4.80;1.65;;;16.90;48.30;;;;;;4982424;28;20051;-85
2022/04/09 09:39:20;;;;;;;2.70;1.00;;;16.90;50.30;;;;;;4986206;28;20050;-85
2022/04/09 09:41:53;;;;;;;5.68;1.50;;;18.00;47.90;;;;;;4966009;28;20105;-86
2022/04/09 09:44:23;;;;;;;6.50;1.55;;;18.50;46.70;;;;;;4979973;28;21095;-83
2022/04/09 09:46:53;;;;;;;5.65;1.00;;;18.50;46.30;;;;;;4969861;28;20121;-84
2022/04/09 09:49:24;;;;;;;4.28;1.33;;;18.50;45.60;;;;;;4991666;28;20065;-86
2022/04/09 09:52:06;;;;;;;6.07;1.02;;;17.10;46.60;;;;;;4981450;28;20206;-82
2022/04/09 09:54:34;;;;;;;3.10;1.20;;;16.20;47.80;;;;;;4958316;28;20054;-82
2022/04/09 09:57:03;;;;;;;7.03;1.05;;;15.90;48.90;;;;;;4963349;28;20461;-80
2022/04/09 09:59:32;;;;;;;3.15;1.20;;;16.00;48.90;;;;;;4965841;28;20053;-81
2022/04/09 10:02:01;;;;;;;5.40;1.30;;;16.10;49.50;;;;;;4988057;28;20541;-80
2022/04/09 10:04:28;;;;;;;3.88;1.48;;;16.70;49.20;;;;;;4996460;28;20050;-79
2022/04/09 10:06:56;;;;;;;6.30;1.60;;;17.70;48.00;;;;;;4998272;28;20060;-80
2022/04/09 10:09:26;;;;;;;4.28;1.40;;;18.50;46.70;;;;;;4977088;28;20570;-80
2022/04/09 10:11:54;;;;;;;5.03;1.15;;;18.80;46.40;;;;;;4977142;28;20581;-80
2022/04/09 10:14:25;;;;;;;6.40;1.42;;;19.50;45.50;;;;;;4994858;28;20189;-90
2022/04/09 10:16:53;;;;;;;4.15;1.25;;;20.20;43.90;;;;;;4978864;28;20098;-82
2022/04/09 10:19:25;;;;;;;2.90;1.45;;;20.40;43.40;;;;;;4994650;28;20130;-86
2022/04/09 10:21:55;;;;;;;6.15;1.23;;;20.70;43.10;;;;;;4993759;28;20093;-83
2022/04/09 10:24:28;;;;;;;5.40;1.20;;;21.10;42.30;;;;;;4972833;28;20046;-84
2022/04/09 10:26:58;;;;;;;3.38;1.10;;;21.40;41.00;;;;;;4991608;28;20137;-83
2022/04/09 10:29:26;;;;;;;5.53;1.90;;;20.40;42.20;;;;;;4989134;28;20047;-87
2022/04/09 10:31:54;;;;;;;8.73;2.65;;;20.90;42.60;;;;;;4990415;28;20215;-85
2022/04/09 10:34:21;;;;;;;6.63;1.38;;;21.30;41.50;;;;;;4972630;28;20074;-84
2022/04/09 10:37:08;;;;;;;8.95;1.17;;;20.50;42.10;;;;;;4973281;28;20049;-87
2022/04/09 10:39:47;;;;;;;2.45;1.10;;;19.60;42.70;;;;;;4991023;28;20604;-85
2022/04/09 10:42:50;;;;;;;5.15;1.23;;;19.30;43.30;;;;;;4969834;28;20050;-85
2022/04/09 10:45:19;;;;;;;9.65;1.60;;;17.40;45.40;;;;;;4992704;28;20066;-87
2022/04/09 10:48:07;;;;;;;7.32;1.30;;;15.80;48.20;;;;;;4993697;28;20053;-85
2022/04/09 10:50:55;;;;;;;11.68;1.40;;;15.20;49.30;;;;;;4993627;28;20056;-84
2022/04/09 10:53:25;;;;;;;12.50;2.00;;;15.70;51.00;;;;;;4957070;28;20094;-85
2022/04/09 10:56:13;;;;;;;6.63;1.33;;;16.10;48.70;;;;;;4972985;28;20141;-86
2022/04/09 10:59:08;;;;;;;8.60;1.75;;;16.80;47.20;;;;;;4973137;28;20078;-85
2022/04/09 11:01:53;;;;;;;4.00;1.15;;;16.70;47.00;;;;;;4971427;28;20097;-86
2022/04/09 11:04:44;;;;;;;7.47;2.15;;;16.80;46.70;;;;;;5002272;28;20092;-85
2022/04/09 11:07:15;;;;;;;2.88;1.30;;;16.80;47.40;;;;;;5006132;28;20089;-83
2022/04/09 11:09:55;;;;;;;4.90;1.40;;;17.00;46.20;;;;;;4967859;28;20525;-83
2022/04/09 11:12:26;;;;;;;9.25;2.00;;;17.30;46.20;;;;;;4998414;28;20554;-86
2022/04/09 11:14:57;;;;;;;4.10;1.50;;;18.00;46.10;;;;;;4994061;28;20042;-84
2022/04/09 11:17:29;;;;;;;5.45;1.48;;;19.10;44.30;;;;;;4993837;28;20492;-83
2022/04/09 11:20:01;;;;;;;1.95;1.20;;;19.80;42.70;;;;;;4974609;28;20055;-84
2022/04/09 11:22:36;;;;;;;9.38;1.65;;;20.80;41.30;;;;;;4993832;28;20097;-85
2022/04/09 11:25:07;;;;;;;8.38;1.50;;;22.00;39.40;;;;;;4975862;28;20057;-84
2022/04/09 11:27:34;;;;;;;5.65;1.98;;;22.80;38.60;;;;;;5001616;28;20064;-83
2022/04/09 11:30:03;;;;;;;6.75;1.80;;;23.40;37.40;;;;;;4994569;28;20051;-84
2022/04/09 11:32:35;;;;;;;4.13;1.70;;;23.60;36.70;;;;;;5007964;28;20049;-85
2022/04/09 11:35:08;;;;;;;5.28;1.08;;;23.90;36.20;;;;;;4985145;28;20395;-87
2022/04/09 11:37:39;;;;;;;;;;;24.00;35.50;;;;;;4985895;28;20454;-87
2022/04/09 11:40:09;;;;;;;6.75;1.40;;;24.30;34.90;;;;;;4985136;28;20027;-88
2022/04/09 11:42:48;;;;;;;1.85;1.05;;;24.30;34.90;;;;;;4981033;28;20582;-87
2022/04/09 11:45:20;;;;;;;6.10;1.20;;;24.20;34.90;;;;;;4994116;28;20096;-88
2022/04/09 11:47:49;;;;;;;4.13;1.55;;;24.70;33.90;;;;;;4976001;28;20054;-86
2022/04/09 11:50:17;;;;;;;18.23;6.45;;;25.00;33.20;;;;;;4981640;28;20046;-86
2022/04/09 11:52:45;;;;;;;4.43;1.30;;;24.80;33.20;;;;;;4988807;28;20054;-85
2022/04/09 11:55:15;;;;;;;15.35;9.10;;;24.90;32.50;;;;;;4984018;28;20357;-91
2022/04/09 11:57:50;;;;;;;4.70;1.17;;;24.80;33.60;;;;;;4981961;28;20058;-87
2022/04/09 12:00:19;;;;;;;4.20;1.15;;;24.80;32.20;;;;;;4983809;28;20576;-86
2022/04/09 12:02:49;;;;;;;9.07;1.50;;;24.70;32.20;;;;;;4976942;28;20058;-84
2022/04/09 12:05:17;;;;;;;10.13;1.65;;;24.70;32.40;;;;;;4982555;28;20145;-85
2022/04/09 12:07:47;;;;;;;2.72;1.00;;;25.30;32.40;;;;;;4974880;28;20065;-83
2022/04/09 12:10:26;;;;;;;5.03;1.33;;;26.10;31.60;;;;;;4990801;28;20088;-82
2022/04/09 12:13:01;;;;;;;6.55;2.13;;;26.10;31.40;;;;;;4992722;28;20100;-90
2022/04/09 12:15:31;;;;;;;3.25;1.60;;;26.50;31.40;;;;;;4991462;28;20514;-90
2022/04/09 12:18:04;;;;;;;5.97;1.20;;;25.00;32.10;;;;;;4991922;28;20062;-90
2022/04/09 12:20:39;;;;;;;2.85;1.05;;;22.70;33.70;;;;;;5003979;28;20096;-87
2022/04/09 12:23:08;;;;;;;5.35;1.15;;;19.70;37.10;;;;;;4988872;28;20058;-88
2022/04/09 12:25:39;;;;;;;9.02;1.45;;;17.50;40.30;;;;;;4992048;28;20529;-84
2022/04/09 12:28:20;;;;;;;2.33;1.08;;;16.90;42.20;;;;;;4992344;28;20073;-85
2022/04/09 12:30:48;;;;;;;9.35;1.10;;;16.70;42.20;;;;;;4992283;28;20600;-87
2022/04/09 12:33:17;;;;;;;6.43;1.63;;;16.90;43.20;;;;;;4974097;28;20544;-85
2022/04/09 12:35:45;;;;;;;4.75;1.02;;;17.00;41.70;;;;;;4988344;28;20090;-81
2022/04/09 12:38:17;;;;;;;7.68;1.90;;;17.80;41.40;;;;;;4980721;28;20478;-80
2022/04/09 12:40:44;;;;;;;8.05;1.35;;;19.10;39.40;;;;;;4981140;28;20553;-80
2022/04/09 12:43:35;;;;;;;4.03;1.30;;;20.30;38.60;;;;;;4974911;28;20096;-82
2022/04/09 12:46:05;;;;;;;3.53;1.08;;;20.80;36.40;;;;;;4991333;28;20054;-84
2022/04/09 12:48:43;;;;;;;4.78;1.08;;;20.40;36.70;;;;;;4990819;28;20050;-80
2022/04/09 12:51:13;;;;;;;5.78;1.50;;;18.60;38.50;;;;;;4990371;28;20077;-80
2022/04/09 12:53:41;;;;;;;5.82;1.30;;;16.90;39.90;;;;;;4990721;28;20124;-84
2022/04/09 12:56:13;;;;;;;5.55;1.05;;;15.50;41.90;;;;;;4990610;28;20042;-82
2022/04/09 12:58:41;;;;;;;12.23;1.30;;;15.20;42.80;;;;;;4991179;28;20510;-79
2022/04/09 13:01:13;;;;;;;3.17;1.08;;;14.50;43.80;;;;;;4988234;28;20041;-82
2022/04/09 13:03:42;;;;;;;9.07;1.45;;;15.60;43.10;;;;;;4973247;28;20145;-83
2022/04/09 13:06:10;;;;;;;7.40;1.58;;;15.40;42.60;;;;;;4968522;28;20453;-87
2022/04/09 13:08:37;;;;;;;7.35;1.45;;;15.20;43.60;;;;;;4989381;28;20436;-82
2022/04/09 13:11:05;;;;;;;12.15;1.33;;;15.90;43.30;;;;;;4990546;28;20601;-88
2022/04/09 13:13:32;;;;;;;5.75;1.40;;;15.60;42.40;;;;;;4955662;28;20478;-85
2022/04/09 13:16:00;;;;;;;6.15;0.88;;;14.70;43.90;;;;;;4968126;28;20507;-88
2022/04/09 13:18:27;;;;;;;2.47;1.27;;;14.30;44.80;;;;;;4991429;28;20093;-84
2022/04/09 13:20:56;;;;;;;5.32;1.45;;;15.30;44.10;;;;;;4977353;28;20037;-83
2022/04/09 13:23:24;;;;;;;6.93;1.60;;;16.90;42.50;;;;;;4986080;28;20054;-92
2022/04/09 13:25:53;;;;;;;6.80;1.15;;;18.70;40.20;;;;;;4989196;28;20054;-86
2022/04/09 13:28:21;;;;;;;7.93;1.55;;;20.50;37.80;;;;;;4991325;28;20051;-87
2022/04/09 13:30:48;;;;;;;5.35;1.40;;;21.90;35.80;;;;;;4993865;28;20112;-90
2022/04/09 13:33:16;;;;;;;5.45;1.15;;;22.30;35.10;;;;;;4990741;28;20047;-84
2022/04/09 13:35:43;;;;;;;2.70;0.85;;;22.30;34.70;;;;;;4988509;28;20070;-90
2022/04/09 13:38:14;;;;;;;4.88;1.38;;;21.90;34.60;;;;;;4960159;28;20137;-89
2022/04/09 13:40:42;;;;;;;7.68;1.17;;;21.70;35.20;;;;;;5002452;28;20053;-86
2022/04/09 13:43:10;;;;;;;3.13;0.80;;;22.00;35.00;;;;;;5013475;28;20058;-85
2022/04/09 13:45:37;;;;;;;4.32;0.75;;;22.20;34.60;;;;;;4982450;28;20533;-83
2022/04/09 13:48:06;;;;;;;6.88;1.42;;;22.20;34.60;;;;;;4988809;28;20077;-85
2022/04/09 13:50:34;;;;;;;8.07;1.50;;;21.80;34.80;;;;;;4973418;28;20885;-86
2022/04/09 13:53:02;;;;;;;4.18;1.00;;;20.00;36.00;;;;;;5001901;28;20305;-86
2022/04/09 13:55:31;;;;;;;3.85;1.33;;;18.50;38.70;;;;;;4979654;28;20133;-91
2022/04/09 13:57:58;;;;;;;10.73;0.77;;;18.80;38.70;;;;;;4994350;28;20092;-88
2022/04/09 14:00:28;;;;;;;4.30;0.70;;;19.60;38.10;;;;;;4990762;28;20039;-89
2022/04/09 14:02:55;;;;;;;4.20;1.45;;;20.60;37.20;;;;;;4993368;28;20483;-88
2022/04/09 14:05:23;;;;;;;1.42;0.90;;;21.50;35.90;;;;;;4977446;28;20049;-86
2022/04/09 14:07:50;;;;;;;6.18;1.55;;;22.10;35.10;;;;;;4990629;28;20091;-87
2022/04/09 14:10:20;;;;;;;7.43;0.85;;;22.40;34.70;;;;;;4980453;28;20058;-82
2022/04/09 14:12:50;;;;;;;4.85;1.33;;;22.40;34.60;;;;;;4987929;28;20042;-84
2022/04/09 14:15:17;;;;;;;5.18;1.10;;;22.50;34.60;;;;;;4985965;28;20483;-84